createdAt,value
2017-12-20T00:02:33.934Z,97047
2017-12-20T00:08:02.118Z,97051
2017-12-20T00:13:31.078Z,97046
2017-12-20T00:19:06.285Z,97045
2017-12-20T00:24:34.459Z,97030
2017-12-20T00:30:02.658Z,97029
2017-12-20T00:35:30.867Z,97026
2017-12-20T00:40:59.072Z,97030
2017-12-20T00:46:27.341Z,97033
2017-12-20T00:51:55.542Z,97043
2017-12-20T00:57:23.958Z,97035
2017-12-20T01:02:52.138Z,97038
2017-12-20T01:08:21.107Z,97038
2017-12-20T01:13:49.291Z,97034
2017-12-20T01:19:17.496Z,97042
2017-12-20T01:24:45.698Z,97045
2017-12-20T01:30:13.904Z,97040
2017-12-20T01:35:42.119Z,97040
2017-12-20T01:41:10.314Z,97041
2017-12-20T01:46:38.529Z,97034
2017-12-20T01:52:07.732Z,97033
2017-12-20T01:57:35.940Z,97042
2017-12-20T02:03:04.133Z,97039
2017-12-20T02:08:32.326Z,97037
2017-12-20T02:14:01.284Z,97032
2017-12-20T02:19:29.476Z,97043
2017-12-20T02:24:57.696Z,97036
2017-12-20T02:30:25.882Z,97031
2017-12-20T02:35:54.867Z,97027
2017-12-20T02:41:23.842Z,97020
2017-12-20T02:46:52.042Z,97030
2017-12-20T02:52:20.240Z,97016
2017-12-20T02:57:48.429Z,97016
2017-12-20T03:03:16.613Z,97005
2017-12-20T03:08:44.830Z,97021
2017-12-20T03:14:13.415Z,97020
2017-12-20T03:19:41.616Z,97020
2017-12-20T03:25:09.839Z,97012
2017-12-20T03:30:38.228Z,97013
2017-12-20T03:36:06.433Z,97017
2017-12-20T03:41:35.384Z,97016
2017-12-20T03:47:03.565Z,97027
2017-12-20T03:52:31.753Z,97024
2017-12-20T03:57:59.938Z,97023
2017-12-20T04:03:28.905Z,97018
2017-12-20T04:08:57.107Z,97020
2017-12-20T04:14:25.304Z,97024
2017-12-20T04:19:53.476Z,97024
2017-12-20T04:25:21.665Z,97025
2017-12-20T04:30:53.913Z,97023
2017-12-20T04:36:22.102Z,97033
2017-12-20T04:41:50.320Z,97025
2017-12-20T04:47:19.255Z,97033
2017-12-20T04:52:48.202Z,97035
2017-12-20T04:58:16.402Z,97037
2017-12-20T05:03:45.565Z,97042
2017-12-20T05:09:14.534Z,97043
2017-12-20T05:14:42.738Z,97034
2017-12-20T05:20:11.571Z,97040
2017-12-20T05:25:40.561Z,97038
2017-12-20T05:31:08.777Z,97051
2017-12-20T05:36:37.745Z,97062
2017-12-20T05:42:06.726Z,97052
2017-12-20T05:47:34.903Z,97054
2017-12-20T05:53:03.096Z,97047
2017-12-20T05:58:31.307Z,97056
2017-12-20T06:03:59.519Z,97053
2017-12-20T06:09:28.475Z,97048
2017-12-20T06:14:56.667Z,97054
2017-12-20T06:20:25.616Z,97064
2017-12-20T06:25:55.683Z,97077
2017-12-20T06:31:24.636Z,97079
2017-12-20T06:36:52.825Z,97080
2017-12-20T06:42:21.022Z,97076
2017-12-20T06:47:49.210Z,97096
2017-12-20T06:53:17.389Z,97085
2017-12-20T06:58:45.632Z,97078
2017-12-20T07:04:13.827Z,97069
2017-12-20T07:09:42.800Z,97075
2017-12-20T07:15:11.005Z,97074
2017-12-20T07:20:39.966Z,97087
2017-12-20T07:26:08.174Z,97089
2017-12-20T07:31:37.151Z,97082
2017-12-20T07:37:05.355Z,97088
2017-12-20T07:42:33.548Z,97098
2017-12-20T07:48:02.875Z,97097
2017-12-20T07:53:31.069Z,97098
2017-12-20T07:58:59.268Z,97100
2017-12-20T08:04:27.442Z,97111
2017-12-20T08:09:55.635Z,97117
2017-12-20T08:15:23.845Z,97124
2017-12-20T08:20:52.048Z,97122
2017-12-20T08:26:20.246Z,97119
2017-12-20T08:31:48.434Z,97135
2017-12-20T08:37:16.634Z,97129
2017-12-20T08:42:44.919Z,97131
2017-12-20T08:48:13.109Z,97137
2017-12-20T08:53:41.293Z,97130
2017-12-20T08:59:09.481Z,97147
2017-12-20T09:04:37.680Z,97131
2017-12-20T09:10:06.634Z,97146
2017-12-20T09:15:34.833Z,97158
2017-12-20T09:21:03.792Z,97156
2017-12-20T09:26:31.992Z,97164
2017-12-20T09:32:00.180Z,97166
2017-12-20T09:37:28.380Z,97165
2017-12-20T09:42:56.551Z,97155
2017-12-20T09:48:24.726Z,97167
2017-12-20T09:53:52.922Z,97154
2017-12-20T09:59:21.103Z,97150
2017-12-20T10:04:49.308Z,97149
2017-12-20T10:10:17.482Z,97152
2017-12-20T10:15:45.686Z,97155
2017-12-20T10:21:14.084Z,97133
2017-12-20T10:26:42.327Z,97137
2017-12-20T10:32:10.466Z,97133
2017-12-20T10:37:38.652Z,97122
2017-12-20T10:43:06.827Z,97116
2017-12-20T10:48:35.027Z,97109
2017-12-20T10:54:03.984Z,97106
2017-12-20T10:59:32.166Z,97105
2017-12-20T11:05:00.368Z,97098
2017-12-20T11:10:28.537Z,97095
2017-12-20T11:15:56.716Z,97096
2017-12-20T11:21:24.885Z,97101
2017-12-20T11:26:53.065Z,97105
2017-12-20T11:32:21.253Z,97117
2017-12-20T11:37:49.444Z,97107
2017-12-20T11:43:17.619Z,97100
2017-12-20T11:48:45.797Z,97092
2017-12-20T11:54:13.974Z,97096
2017-12-20T11:59:42.953Z,97084
2017-12-20T12:05:11.153Z,97095
2017-12-20T12:10:39.366Z,97089
2017-12-20T12:16:07.570Z,97086
2017-12-20T12:21:35.750Z,97082
2017-12-20T12:27:03.944Z,97087
2017-12-20T12:32:32.130Z,97077
2017-12-20T12:38:00.299Z,97074
2017-12-20T12:43:28.493Z,97070
2017-12-20T12:48:57.657Z,97063
2017-12-20T12:54:25.884Z,97069
2017-12-20T12:59:55.917Z,97056
2017-12-20T13:05:24.198Z,97065
2017-12-20T13:10:52.621Z,97051
2017-12-20T13:16:20.826Z,97060
2017-12-20T13:21:49.020Z,97067
2017-12-20T13:27:17.212Z,97068
2017-12-20T13:32:45.397Z,97059
2017-12-20T13:38:13.837Z,97061
2017-12-20T13:43:42.047Z,97057
2017-12-20T13:49:10.264Z,97058
2017-12-20T13:54:38.458Z,97074
2017-12-20T14:00:06.705Z,97075
2017-12-20T14:05:34.894Z,97075
2017-12-20T14:11:03.856Z,97086
2017-12-20T14:16:32.046Z,97077
2017-12-20T14:22:01.007Z,97088
2017-12-20T14:27:29.194Z,97091
2017-12-20T14:32:58.173Z,97087
2017-12-20T14:38:26.340Z,97104
2017-12-20T14:43:54.541Z,97106
2017-12-20T14:49:22.716Z,97102
2017-12-20T14:54:50.897Z,97102
2017-12-20T15:00:19.817Z,97098
2017-12-20T15:05:48.394Z,97106
2017-12-20T15:11:17.461Z,97112
2017-12-20T15:16:45.662Z,97107
2017-12-20T15:22:13.900Z,97108
2017-12-20T15:27:42.119Z,97116
2017-12-20T15:33:10.312Z,97107
2017-12-20T15:38:39.950Z,97110
2017-12-20T15:44:08.140Z,97122
2017-12-20T15:49:36.342Z,97124
2017-12-20T15:55:04.552Z,97123
2017-12-20T16:00:32.734Z,97127
2017-12-20T16:06:01.014Z,97121
2017-12-20T16:11:29.219Z,97129
2017-12-20T16:16:57.383Z,97139
2017-12-20T16:22:25.576Z,97138
2017-12-20T16:27:53.774Z,97148
2017-12-20T16:33:21.956Z,97152
2017-12-20T16:38:50.793Z,97156
2017-12-20T16:44:18.980Z,97151
2017-12-20T16:49:47.196Z,97156
2017-12-20T16:55:15.397Z,97156
2017-12-20T17:00:43.579Z,97158
2017-12-20T17:06:11.797Z,97162
2017-12-20T17:11:40.779Z,97167
2017-12-20T17:17:08.965Z,97177
2017-12-20T17:22:37.156Z,97188
2017-12-20T17:28:05.324Z,97189
2017-12-20T17:33:33.514Z,97191
2017-12-20T17:39:01.710Z,97192
2017-12-20T17:44:29.930Z,97189
2017-12-20T17:49:58.099Z,97202
2017-12-20T17:55:27.077Z,97206
2017-12-20T18:00:55.248Z,97219
2017-12-20T18:06:23.440Z,97218
2017-12-20T18:11:51.635Z,97216
2017-12-20T18:17:19.831Z,97225
2017-12-20T18:22:48.196Z,97219
2017-12-20T18:28:16.409Z,97221
2017-12-20T18:33:44.582Z,97236
2017-12-20T18:39:13.540Z,97226
2017-12-20T18:44:43.807Z,97240
2017-12-20T18:50:12.108Z,97222
2017-12-20T18:55:40.330Z,97236
2017-12-20T19:01:09.642Z,97246
2017-12-20T19:06:37.843Z,97244
2017-12-20T19:12:06.039Z,97243
2017-12-20T19:17:34.364Z,97231
2017-12-20T19:23:02.588Z,97236
2017-12-20T19:28:30.795Z,97239
2017-12-20T19:33:59.863Z,97238
2017-12-20T19:39:28.149Z,97238
2017-12-20T19:45:00.217Z,97246
2017-12-20T19:50:29.172Z,97240
2017-12-20T19:55:57.401Z,97238
2017-12-20T20:01:25.578Z,97240
2017-12-20T20:06:53.808Z,97237
2017-12-20T20:12:23.082Z,97232
2017-12-20T20:17:51.287Z,97234
2017-12-20T20:23:19.496Z,97240
2017-12-20T20:28:47.754Z,97241
2017-12-20T20:34:15.929Z,97244
2017-12-20T20:39:44.876Z,97240
2017-12-20T20:45:13.073Z,97248
2017-12-20T20:50:41.253Z,97240
2017-12-20T20:56:09.451Z,97244
2017-12-20T21:01:37.649Z,97244
2017-12-20T21:07:06.809Z,97241
2017-12-20T21:12:35.018Z,97247
2017-12-20T21:18:03.221Z,97245
2017-12-20T21:23:31.435Z,97240
2017-12-20T21:28:59.638Z,97238
2017-12-20T21:34:34.398Z,97246
2017-12-20T21:40:02.632Z,97257
2017-12-20T21:45:37.277Z,97259
2017-12-20T21:51:05.458Z,97268
2017-12-20T21:56:33.706Z,97274
2017-12-20T22:02:01.930Z,97279
2017-12-20T22:07:30.128Z,97279
2017-12-20T22:12:58.335Z,97281
2017-12-20T22:18:27.304Z,97283
2017-12-20T22:23:55.572Z,97286
2017-12-20T22:29:23.768Z,97282
2017-12-20T22:34:51.968Z,97287
2017-12-20T22:40:20.458Z,97280
2017-12-20T22:45:48.669Z,97278
2017-12-20T22:51:16.839Z,97281
2017-12-20T22:56:47.634Z,97287
2017-12-20T23:02:15.856Z,97278
2017-12-20T23:07:44.069Z,97282
2017-12-20T23:13:12.298Z,97281
2017-12-20T23:18:42.444Z,97267
2017-12-20T23:24:10.682Z,97272
2017-12-20T23:29:38.918Z,97273
2017-12-20T23:35:07.116Z,97276
2017-12-20T23:40:35.300Z,97272
2017-12-20T23:46:03.491Z,97271
2017-12-20T23:51:31.676Z,97253
2017-12-20T23:56:59.877Z,97260
